PPR-pyyntö

Ennakkolupa on pakollinen lentoonlähtöjä ja laskuja varten. Pyydä ennakkolupa tästä.

Laskukierrosvaraus

Tee ensin PPR-pyyntö, sitten vasta laskukierrosvaraus. Hinta 5 € / 15 min.

Aerodrome Info

Updated 20 OCT 2017 20:27 LT

  • Some asphalt damage south of RWY 36 threshold
  • Large water puddles on TWYs and APN
  • RWY prefered

Contact duty officer at +358 20 7545 129 for more information.

Weather


Helsinki Malmi lentokenttä
AWS ILHF 201720Z AUTO 01002KT 9999 BCFG NCD M00/M01 Q1024=

METAR EFHK 201720Z 03004KT 0600 R04R/P1500N R15/0750N R22L/0800N R04L/P1500N FG FEW020 01/00 Q1024 BECMG FZFG VV002=
TAF AMD EFHK 201709Z 2017/2115 03004KT 1200 BCFG FEW002 BECMG 2017/2019 0800 FZFG OVC005 TEMPO 2019/2107 0500 VV002 BECMG 2107/2109 8000 NSW TEMPO 2109/2112 5000 BR TEMPO 2112/2115 SCT005=

Helsinki-Malmin lentoasema

Tervetuloa Helsinki-Malmin lentokentälle

Malmin lentokenttäyhdistys ry on yleishyödyllinen yhdistys, joka toimii Suomen vilkkaimman yleisilmailukentän, Helsinki-Malmin operaattorina. Yhdistyksen toiminnassa ovat mukana kentällä toimivat yhteisöt sekä suuri joukko yleisilmailijoita.

Malmin lentokentän toiminta rahoitetaan jäsen- ja kausikorttimaksuin. Ole mukana jatkamassa Malmin lentotoimintaa ja liity jäseneksi!